Ribera, New Mexico
Current Conditions -  °F | °C
As of 9:53 AM on Sunday 23 Nov 2014 (Local Time) from KLVS Reporting Station
Clear Clear  
Wind Chill: 36°   Ceiling: Unl
Heat Index: 45°   Visibility: 10mi
Dew Point: 18°   Wind: 26mph
Humidity: 34%   Direction: 300°WNW
Pressure: 29.7"   Gusts: 37mph
Location:  35.38°N, 105.45°W
Report Text: KLVS 231653Z AUTO 30023G32KT 10SM CLR 07/M08 A2970 RMK AO2 PK WND 27040/1556 SLP001 T00721078
Loading
Personal Weather Stations






























Interactive Weather Map New forecast layout! Learn more

10-Day Weather Forecast

Advertisements
Track Severe Weather on mobile